createdAt,value
2023-03-26T00:01:39.856Z,97628.95
2023-03-26T00:04:07.076Z,97630.75
2023-03-26T00:06:38.402Z,97628.96
2023-03-26T00:09:06.883Z,97630.64
2023-03-26T00:11:34.232Z,97628.27
2023-03-26T00:14:02.127Z,97631.73
2023-03-26T00:16:30.672Z,97633.44
2023-03-26T00:18:58.193Z,97636.67
2023-03-26T00:21:27.347Z,97637.20
2023-03-26T00:23:59.182Z,97635.66
2023-03-26T00:26:30.699Z,97632.64
2023-03-26T00:28:59.588Z,97628.79
2023-03-26T00:31:26.884Z,97625.86
2023-03-26T00:33:55.010Z,97626.66
2023-03-26T00:36:22.683Z,97630.59
2023-03-26T00:38:52.338Z,97635.79
2023-03-26T00:41:24.938Z,97636.30
2023-03-26T00:43:55.697Z,97641.42
2023-03-26T00:46:23.060Z,97633.54
2023-03-26T00:48:50.244Z,97631.25
2023-03-26T00:51:18.601Z,97630.10
2023-03-26T00:53:46.884Z,97632.77
2023-03-26T00:56:14.049Z,97631.90
2023-03-26T00:58:41.601Z,97636.80
2023-03-26T01:01:10.467Z,97641.56
2023-03-26T01:03:38.071Z,97642.86
2023-03-26T01:06:09.528Z,97638.99
2023-03-26T01:08:41.230Z,97633.69
2023-03-26T01:11:14.251Z,97631.50
2023-03-26T01:13:46.080Z,97636.54
2023-03-26T01:16:25.831Z,97642.59
2023-03-26T01:18:53.513Z,97642.60
2023-03-26T01:21:22.701Z,97641.19
2023-03-26T01:23:59.205Z,97643.63
2023-03-26T01:26:35.574Z,97643.64
2023-03-26T01:29:03.967Z,97644.71
2023-03-26T01:31:36.523Z,97650.37
2023-03-26T01:34:06.499Z,97653.56
2023-03-26T01:36:44.662Z,97652.77
2023-03-26T01:39:18.097Z,97648.52
2023-03-26T01:41:46.980Z,97643.80
2023-03-26T01:44:13.899Z,97643.41
2023-03-26T01:46:41.922Z,97639.48
2023-03-26T01:49:14.876Z,97637.61
2023-03-26T01:51:42.434Z,97645.15
2023-03-26T01:54:18.194Z,97649.16
2023-03-26T01:56:47.928Z,97642.52
2023-03-26T01:59:26.815Z,97647.67
2023-03-26T02:02:00.613Z,97653.11
2023-03-26T02:04:45.350Z,97660.55
2023-03-26T02:07:17.555Z,97667.81
2023-03-26T02:09:50.128Z,97666.74
2023-03-26T02:12:17.384Z,97667.27
2023-03-26T02:14:45.562Z,97669.55
2023-03-26T02:17:12.714Z,97668.94
2023-03-26T02:19:42.736Z,97669.24
2023-03-26T02:22:16.173Z,97675.23
2023-03-26T02:24:44.461Z,97670.70
2023-03-26T02:27:11.873Z,97662.73
2023-03-26T02:29:40.220Z,97661.38
2023-03-26T02:32:12.514Z,97663.73
2023-03-26T02:34:39.955Z,97666.27
2023-03-26T02:37:06.936Z,97664.94
2023-03-26T02:39:35.022Z,97668.45
2023-03-26T02:42:07.338Z,97674.64
2023-03-26T02:44:39.732Z,97675.36
2023-03-26T02:47:29.159Z,97672.15
2023-03-26T02:50:18.901Z,97670.70
2023-03-26T02:53:02.799Z,97672.02
2023-03-26T02:55:30.713Z,97667.52
2023-03-26T02:58:00.089Z,97674.30
2023-03-26T03:00:35.470Z,97677.33
2023-03-26T03:03:23.844Z,97680.95
2023-03-26T03:05:59.555Z,97682.48
2023-03-26T03:08:33.983Z,97681.66
2023-03-26T03:11:11.360Z,97681.79
2023-03-26T03:13:44.246Z,97682.53
2023-03-26T03:16:11.635Z,97686.33
2023-03-26T03:18:38.656Z,97689.67
2023-03-26T03:21:06.843Z,97694.38
2023-03-26T03:23:33.893Z,97700.70
2023-03-26T03:26:21.109Z,97701.88
2023-03-26T03:28:52.160Z,97706.55
2023-03-26T03:31:19.144Z,97714.38
2023-03-26T03:33:46.105Z,97715.94
2023-03-26T03:36:20.983Z,97714.76
2023-03-26T03:38:54.715Z,97720.10
2023-03-26T03:41:22.279Z,97718.95
2023-03-26T03:43:49.613Z,97724.29
2023-03-26T03:46:20.698Z,97729.05
2023-03-26T03:48:49.463Z,97728.52
2023-03-26T03:51:23.132Z,97732.63
2023-03-26T03:53:57.065Z,97730.28
2023-03-26T03:56:49.834Z,97726.98
2023-03-26T03:59:20.336Z,97721.56
2023-03-26T04:01:48.311Z,97723.20
2023-03-26T04:04:24.204Z,97725.20
2023-03-26T04:07:05.644Z,97731.69
2023-03-26T04:09:55.860Z,97734.41
2023-03-26T04:12:23.185Z,97735.96
2023-03-26T04:15:00.095Z,97736.66
2023-03-26T04:17:27.062Z,97740.86
2023-03-26T04:19:55.496Z,97742.13
2023-03-26T04:22:35.884Z,97741.27
2023-03-26T04:25:05.120Z,97735.67
2023-03-26T04:27:41.083Z,97740.81
2023-03-26T04:30:20.059Z,97742.42
2023-03-26T04:32:51.488Z,97740.49
2023-03-26T04:35:19.080Z,97746.37
2023-03-26T04:37:52.373Z,97744.44
2023-03-26T04:40:24.416Z,97755.48
2023-03-26T04:43:12.450Z,97763.00
2023-03-26T04:46:04.996Z,97768.21
2023-03-26T04:48:38.282Z,97769.35
2023-03-26T04:51:09.427Z,97771.28
2023-03-26T04:53:36.681Z,97775.84
2023-03-26T04:56:28.207Z,97782.20
2023-03-26T04:59:14.937Z,97778.86
2023-03-26T05:01:45.343Z,97780.16
2023-03-26T05:04:13.465Z,97776.36
2023-03-26T05:06:41.286Z,97775.15
2023-03-26T05:09:16.203Z,97780.61
2023-03-26T05:12:12.323Z,97787.88
2023-03-26T05:14:52.675Z,97795.17
2023-03-26T05:17:30.558Z,97794.63
2023-03-26T05:19:57.629Z,97789.61
2023-03-26T05:22:25.396Z,97794.02
2023-03-26T05:25:17.010Z,97793.53
2023-03-26T05:27:44.788Z,97794.54
2023-03-26T05:30:13.948Z,97800.63
2023-03-26T05:32:43.707Z,97797.92
2023-03-26T05:35:12.282Z,97794.35
2023-03-26T05:37:39.455Z,97793.59
2023-03-26T05:40:11.227Z,97794.88
2023-03-26T05:42:45.704Z,97794.28
2023-03-26T05:45:41.761Z,97796.70
2023-03-26T05:48:25.379Z,97798.96
2023-03-26T05:50:54.594Z,97800.18
2023-03-26T05:53:22.749Z,97800.83
2023-03-26T05:56:10.376Z,97801.71
2023-03-26T05:58:56.669Z,97804.11
2023-03-26T06:01:44.603Z,97804.44
2023-03-26T06:04:31.571Z,97802.54
2023-03-26T06:07:22.185Z,97800.33
2023-03-26T06:10:10.324Z,97803.77
2023-03-26T06:12:37.279Z,97801.02
2023-03-26T06:15:05.773Z,97801.40
2023-03-26T06:17:53.623Z,97807.40
2023-03-26T06:20:35.792Z,97812.80
2023-03-26T06:23:08.871Z,97814.95
2023-03-26T06:26:01.717Z,97814.73
2023-03-26T06:28:41.154Z,97815.71
2023-03-26T06:31:28.285Z,97817.50
2023-03-26T06:34:11.997Z,97819.39
2023-03-26T06:36:38.955Z,97815.60
2023-03-26T06:39:07.850Z,97816.02
2023-03-26T06:41:37.351Z,97809.75
2023-03-26T06:44:24.720Z,97813.46
2023-03-26T06:47:26.738Z,97813.73
2023-03-26T06:50:12.199Z,97817.09
2023-03-26T06:52:57.417Z,97819.26
2023-03-26T06:55:35.518Z,97818.33
2023-03-26T06:58:21.449Z,97814.77
2023-03-26T07:01:07.158Z,97813.98
2023-03-26T07:03:52.830Z,97814.24
2023-03-26T07:06:38.582Z,97824.95
2023-03-26T07:09:25.894Z,97822.88
2023-03-26T07:12:11.573Z,97825.10
2023-03-26T07:15:13.833Z,97829.02
2023-03-26T07:18:04.239Z,97828.71
2023-03-26T07:20:34.443Z,97832.61
2023-03-26T07:23:01.902Z,97833.28
2023-03-26T07:25:53.318Z,97834.73
2023-03-26T07:29:05.119Z,97835.13
2023-03-26T07:32:09.121Z,97830.53
2023-03-26T07:34:54.154Z,97827.66
2023-03-26T07:37:58.960Z,97830.58
2023-03-26T07:41:03.287Z,97834.14
2023-03-26T07:44:07.668Z,97835.48
2023-03-26T07:47:14.319Z,97841.73
2023-03-26T07:49:58.886Z,97844.98
2023-03-26T07:52:51.410Z,97845.59
2023-03-26T07:55:53.864Z,97844.94
2023-03-26T07:58:57.962Z,97847.65
2023-03-26T08:01:47.836Z,97852.58
2023-03-26T08:04:40.828Z,97856.70
2023-03-26T08:07:52.668Z,97850.08
2023-03-26T08:10:31.181Z,97848.70
2023-03-26T08:13:22.185Z,97841.89
2023-03-26T08:15:53.054Z,97839.86
2023-03-26T08:18:20.059Z,97835.70
2023-03-26T08:20:53.098Z,97835.08
2023-03-26T08:23:27.405Z,97838.83
2023-03-26T08:26:03.832Z,97839.67
2023-03-26T08:28:45.522Z,97836.44
2023-03-26T08:31:13.220Z,97834.08
2023-03-26T08:33:40.444Z,97826.40
2023-03-26T08:36:09.166Z,97826.41
2023-03-26T08:38:36.094Z,97828.21
2023-03-26T08:41:12.143Z,97827.44
2023-03-26T08:43:51.576Z,97834.63
2023-03-26T08:46:25.526Z,97833.99
2023-03-26T08:49:01.060Z,97837.53
2023-03-26T08:51:27.896Z,97836.02
2023-03-26T08:53:54.806Z,97837.39
2023-03-26T08:56:40.779Z,97835.73
2023-03-26T08:59:16.402Z,97834.30
2023-03-26T09:01:45.017Z,97835.39
2023-03-26T09:04:21.076Z,97832.36
2023-03-26T09:06:50.768Z,97829.83
2023-03-26T09:09:36.391Z,97826.41
2023-03-26T09:12:23.310Z,97822.98
2023-03-26T09:14:57.380Z,97823.42
2023-03-26T09:17:36.216Z,97823.50
2023-03-26T09:20:24.523Z,97821.23
2023-03-26T09:23:09.609Z,97819.62
2023-03-26T09:25:41.015Z,97817.32
2023-03-26T09:28:26.298Z,97811.17
2023-03-26T09:30:53.511Z,97806.40
2023-03-26T09:33:39.057Z,97810.45
2023-03-26T09:36:21.170Z,97809.14
2023-03-26T09:39:06.876Z,97810.06
2023-03-26T09:41:58.874Z,97800.69
2023-03-26T09:44:42.520Z,97804.81
2023-03-26T09:47:19.234Z,97803.61
2023-03-26T09:49:46.088Z,97798.76
2023-03-26T09:52:22.590Z,97793.45
2023-03-26T09:54:58.783Z,97798.77
2023-03-26T09:57:39.221Z,97801.89
2023-03-26T10:00:06.932Z,97805.77
2023-03-26T10:02:46.719Z,97801.55
2023-03-26T10:05:27.446Z,97797.48
2023-03-26T10:08:19.773Z,97790.61
2023-03-26T10:10:52.827Z,97792.27
2023-03-26T10:13:22.835Z,97786.59
2023-03-26T10:15:52.483Z,97786.91
2023-03-26T10:18:27.938Z,97787.00
2023-03-26T10:21:01.204Z,97783.87
2023-03-26T10:23:32.174Z,97779.59
2023-03-26T10:26:08.283Z,97772.04
2023-03-26T10:28:35.811Z,97770.52
2023-03-26T10:31:14.737Z,97773.11
2023-03-26T10:33:51.717Z,97771.03
2023-03-26T10:36:18.514Z,97771.23
2023-03-26T10:38:57.484Z,97768.83
2023-03-26T10:41:45.599Z,97771.14
2023-03-26T10:44:31.051Z,97767.81
2023-03-26T10:47:10.044Z,97760.63
2023-03-26T10:49:39.963Z,97757.27
2023-03-26T10:52:15.460Z,97756.70
2023-03-26T10:54:48.768Z,97756.52
2023-03-26T10:57:23.926Z,97753.82
2023-03-26T10:59:53.722Z,97751.02
2023-03-26T11:02:30.213Z,97751.48
2023-03-26T11:05:16.548Z,97751.64
2023-03-26T11:07:51.272Z,97745.55
2023-03-26T11:10:17.979Z,97741.97
2023-03-26T11:12:54.779Z,97733.66
2023-03-26T11:15:24.624Z,97734.98
2023-03-26T11:18:03.677Z,97730.66
2023-03-26T11:20:43.509Z,97732.10
2023-03-26T11:23:32.557Z,97732.86
2023-03-26T11:25:59.421Z,97727.55
2023-03-26T11:28:35.991Z,97729.80
2023-03-26T11:31:38.485Z,97728.36
2023-03-26T11:34:10.680Z,97720.89
2023-03-26T11:36:40.563Z,97722.33
2023-03-26T11:39:13.204Z,97725.93
2023-03-26T11:41:40.010Z,97722.45
2023-03-26T11:44:20.738Z,97720.42
2023-03-26T11:46:48.747Z,97721.61
2023-03-26T11:49:17.145Z,97723.64
2023-03-26T11:51:46.982Z,97718.35
2023-03-26T11:54:14.651Z,97716.29
2023-03-26T11:57:05.266Z,97714.92
2023-03-26T11:59:41.937Z,97708.05
2023-03-26T12:02:23.758Z,97710.06
2023-03-26T12:04:54.730Z,97705.73
2023-03-26T12:07:21.613Z,97701.48
2023-03-26T12:10:18.331Z,97697.74
2023-03-26T12:12:47.025Z,97696.67
2023-03-26T12:15:18.594Z,97689.27
2023-03-26T12:17:46.507Z,97682.20
2023-03-26T12:20:24.344Z,97678.86
2023-03-26T12:23:14.099Z,97672.77
2023-03-26T12:25:40.858Z,97673.23
2023-03-26T12:28:14.073Z,97666.05
2023-03-26T12:30:41.809Z,97659.52
2023-03-26T12:33:13.744Z,97653.00
2023-03-26T12:35:40.914Z,97653.30
2023-03-26T12:38:13.956Z,97648.44
2023-03-26T12:40:42.639Z,97641.52
2023-03-26T12:44:46.165Z,97645.80
2023-03-26T12:47:59.419Z,97645.33
2023-03-26T12:49:13.484Z,97638.31
2023-03-26T12:51:58.019Z,97640.24
2023-03-26T12:54:44.222Z,97641.11
2023-03-26T12:57:21.889Z,97623.81
2023-03-26T12:59:57.839Z,97610.94
2023-03-26T13:02:32.161Z,97604.48
2023-03-26T13:05:05.546Z,97600.61
2023-03-26T13:07:45.261Z,97602.03
2023-03-26T13:10:35.603Z,97592.52
2023-03-26T13:13:21.213Z,97582.73
2023-03-26T13:15:52.701Z,97571.69
2023-03-26T13:18:37.051Z,97570.22
2023-03-26T13:21:22.292Z,97577.01
2023-03-26T13:24:07.742Z,97583.35
2023-03-26T13:26:52.830Z,97591.58
2023-03-26T13:29:34.795Z,97583.52
2023-03-26T13:32:05.353Z,97579.01
2023-03-26T13:34:33.000Z,97580.18
2023-03-26T13:37:03.825Z,97583.27
2023-03-26T13:39:41.206Z,97587.10
2023-03-26T13:42:07.970Z,97583.04
2023-03-26T13:44:40.891Z,97586.78
2023-03-26T13:47:14.857Z,97583.05
2023-03-26T13:49:54.878Z,97562.02
2023-03-26T13:52:24.635Z,97573.40
2023-03-26T13:55:13.315Z,97560.70
2023-03-26T13:57:45.977Z,97564.98
2023-03-26T14:00:21.303Z,97559.93
2023-03-26T14:03:03.906Z,97552.25
2023-03-26T14:05:34.888Z,97546.73
2023-03-26T14:08:22.176Z,97539.67
2023-03-26T14:10:53.434Z,97544.48
2023-03-26T14:13:23.373Z,97546.85
2023-03-26T14:15:54.749Z,97544.83
2023-03-26T14:18:40.288Z,97536.13
2023-03-26T14:21:12.727Z,97528.31
2023-03-26T14:23:57.243Z,97526.14
2023-03-26T14:26:42.960Z,97517.26
2023-03-26T14:29:09.740Z,97521.94
2023-03-26T14:31:42.823Z,97518.66
2023-03-26T14:34:21.826Z,97517.64
2023-03-26T14:36:59.142Z,97514.88
2023-03-26T14:39:47.614Z,97521.41
2023-03-26T14:42:32.569Z,97513.56
2023-03-26T14:44:59.284Z,97508.61
2023-03-26T14:47:26.360Z,97504.93
2023-03-26T14:50:08.429Z,97507.66
2023-03-26T14:52:36.529Z,97498.27
2023-03-26T14:55:10.446Z,97498.06
2023-03-26T14:57:52.836Z,97497.41
2023-03-26T15:00:20.375Z,97494.63
2023-03-26T15:03:07.508Z,97495.54
2023-03-26T15:05:47.308Z,97500.08
2023-03-26T15:08:34.454Z,97492.35
2023-03-26T15:11:20.408Z,97489.91
2023-03-26T15:14:06.078Z,97491.38
2023-03-26T15:16:58.642Z,97487.79
2023-03-26T15:19:28.449Z,97489.73
2023-03-26T15:22:26.408Z,97496.55
2023-03-26T15:24:53.252Z,97496.28
2023-03-26T15:27:36.705Z,97494.83
2023-03-26T15:30:24.393Z,97496.98
2023-03-26T15:33:00.269Z,97496.96
2023-03-26T15:35:45.645Z,97494.95
2023-03-26T15:38:15.473Z,97492.38
2023-03-26T15:40:45.069Z,97493.20
2023-03-26T15:43:16.226Z,97491.80
2023-03-26T15:46:02.313Z,97488.61
2023-03-26T15:48:29.630Z,97490.85
2023-03-26T15:51:17.816Z,97488.46
2023-03-26T15:54:03.541Z,97486.73
2023-03-26T15:56:53.748Z,97488.10
2023-03-26T15:59:37.666Z,97492.21
2023-03-26T16:02:04.513Z,97489.11
2023-03-26T16:04:41.217Z,97485.08
2023-03-26T16:07:21.270Z,97490.31
2023-03-26T16:10:20.333Z,97486.71
2023-03-26T16:12:47.140Z,97481.14
2023-03-26T16:15:31.640Z,97486.95
2023-03-26T16:18:04.760Z,97487.13
2023-03-26T16:20:33.933Z,97485.52
2023-03-26T16:23:03.973Z,97486.61
2023-03-26T16:25:34.947Z,97492.45
2023-03-26T16:28:11.052Z,97494.31
2023-03-26T16:30:38.556Z,97489.69
2023-03-26T16:33:13.432Z,97494.44
2023-03-26T16:36:13.609Z,97499.63
2023-03-26T16:38:49.836Z,97502.16
2023-03-26T16:41:18.586Z,97508.42
2023-03-26T16:43:54.771Z,97506.91
2023-03-26T16:46:35.999Z,97509.20
2023-03-26T16:49:24.099Z,97510.46
2023-03-26T16:51:50.952Z,97510.02
2023-03-26T16:54:26.866Z,97508.67
2023-03-26T16:57:00.688Z,97510.53
2023-03-26T16:59:46.348Z,97516.63
2023-03-26T17:02:51.927Z,97516.48
2023-03-26T17:05:25.216Z,97517.74
2023-03-26T17:08:18.756Z,97521.62
2023-03-26T17:11:19.211Z,97529.66
2023-03-26T17:14:09.017Z,97531.96
2023-03-26T17:16:36.029Z,97529.13
2023-03-26T17:19:06.088Z,97531.98
2023-03-26T17:21:45.881Z,97529.23
2023-03-26T17:24:23.901Z,97528.38
2023-03-26T17:27:21.515Z,97526.23
2023-03-26T17:29:57.471Z,97528.77
2023-03-26T17:32:24.834Z,97531.51
2023-03-26T17:34:51.612Z,97534.36
2023-03-26T17:37:21.088Z,97535.75
2023-03-26T17:39:50.661Z,97533.42
2023-03-26T17:42:24.514Z,97531.89
2023-03-26T17:44:52.679Z,97534.27
2023-03-26T17:47:25.946Z,97531.77
2023-03-26T17:50:13.370Z,97531.16
2023-03-26T17:52:47.749Z,97533.80
2023-03-26T17:55:17.557Z,97533.30
2023-03-26T17:57:47.385Z,97530.39
2023-03-26T18:00:26.387Z,97531.73
2023-03-26T18:03:16.492Z,97529.30
2023-03-26T18:05:43.574Z,97526.83
2023-03-26T18:08:19.511Z,97528.57
2023-03-26T18:11:09.372Z,97524.50
2023-03-26T18:14:05.744Z,97530.56
2023-03-26T18:16:37.030Z,97530.27
2023-03-26T18:19:17.167Z,97531.25
2023-03-26T18:21:49.643Z,97533.02
2023-03-26T18:24:25.158Z,97532.00
2023-03-26T18:26:54.913Z,97525.77
2023-03-26T18:29:24.810Z,97527.59
2023-03-26T18:32:02.337Z,97533.21
2023-03-26T18:34:31.378Z,97537.69
2023-03-26T18:37:07.973Z,97540.98
2023-03-26T18:39:35.123Z,97542.74
2023-03-26T18:42:01.968Z,97544.03
2023-03-26T18:44:28.811Z,97537.75
2023-03-26T18:46:56.633Z,97534.89
2023-03-26T18:49:25.423Z,97533.38
2023-03-26T18:51:57.225Z,97531.59
2023-03-26T18:54:30.285Z,97533.08
2023-03-26T18:57:15.247Z,97537.96
2023-03-26T18:59:44.797Z,97531.65
2023-03-26T19:02:15.868Z,97528.81
2023-03-26T19:04:46.082Z,97526.20
2023-03-26T19:07:15.538Z,97523.27
2023-03-26T19:09:42.947Z,97516.32
2023-03-26T19:12:23.491Z,97513.98
2023-03-26T19:14:52.983Z,97514.95
2023-03-26T19:17:20.663Z,97510.63
2023-03-26T19:19:49.027Z,97505.29
2023-03-26T19:22:16.306Z,97502.16
2023-03-26T19:24:43.400Z,97499.52
2023-03-26T19:27:10.870Z,97489.66
2023-03-26T19:29:37.695Z,97487.77
2023-03-26T19:32:05.937Z,97484.25
2023-03-26T19:34:39.492Z,97482.84
2023-03-26T19:37:17.405Z,97481.43
2023-03-26T19:39:44.228Z,97484.20
2023-03-26T19:42:17.025Z,97480.19
2023-03-26T19:44:44.246Z,97474.36
2023-03-26T19:47:15.892Z,97473.34
2023-03-26T19:49:53.736Z,97475.08
2023-03-26T19:52:24.929Z,97470.83
2023-03-26T19:55:00.124Z,97468.67
2023-03-26T19:57:28.771Z,97464.09
2023-03-26T19:59:56.064Z,97465.83
2023-03-26T20:02:22.926Z,97463.31
2023-03-26T20:04:49.971Z,97462.39
2023-03-26T20:07:18.351Z,97458.75
2023-03-26T20:09:45.688Z,97456.52
2023-03-26T20:12:12.928Z,97457.40
2023-03-26T20:14:40.386Z,97456.70
2023-03-26T20:17:14.168Z,97453.88
2023-03-26T20:19:40.994Z,97447.84
2023-03-26T20:22:14.922Z,97447.42
2023-03-26T20:24:44.288Z,97446.41
2023-03-26T20:27:14.390Z,97449.36
2023-03-26T20:29:41.763Z,97442.81
2023-03-26T20:32:17.364Z,97439.01
2023-03-26T20:34:45.173Z,97433.24
2023-03-26T20:37:11.900Z,97433.52
2023-03-26T20:39:39.176Z,97437.05
2023-03-26T20:42:06.772Z,97439.70
2023-03-26T20:44:33.686Z,97438.73
2023-03-26T20:47:00.774Z,97437.68
2023-03-26T20:49:29.157Z,97438.68
2023-03-26T20:51:57.015Z,97432.62
2023-03-26T20:54:25.118Z,97429.28
2023-03-26T20:56:53.022Z,97424.10
2023-03-26T20:59:21.580Z,97417.77
2023-03-26T21:01:49.612Z,97411.16
2023-03-26T21:04:16.966Z,97411.20
2023-03-26T21:06:43.860Z,97416.70
2023-03-26T21:09:15.373Z,97408.84
2023-03-26T21:11:55.161Z,97403.84
2023-03-26T21:14:24.157Z,97402.19
2023-03-26T21:16:52.064Z,97394.58
2023-03-26T21:19:19.762Z,97393.07
2023-03-26T21:21:52.577Z,97387.45
2023-03-26T21:24:32.628Z,97389.65
2023-03-26T21:27:12.127Z,97385.98
2023-03-26T21:29:38.996Z,97388.99
2023-03-26T21:32:06.049Z,97386.39
2023-03-26T21:34:33.539Z,97378.91
2023-03-26T21:37:01.101Z,97377.25
2023-03-26T21:39:28.578Z,97374.22
2023-03-26T21:42:04.797Z,97375.86
2023-03-26T21:44:33.036Z,97368.20
2023-03-26T21:47:00.328Z,97368.08
2023-03-26T21:49:27.691Z,97362.41
2023-03-26T21:51:54.632Z,97354.39
2023-03-26T21:54:28.991Z,97352.73
2023-03-26T21:57:02.015Z,97353.52
2023-03-26T21:59:36.203Z,97350.87
2023-03-26T22:02:10.398Z,97349.81
2023-03-26T22:04:56.877Z,97343.48
2023-03-26T22:07:32.576Z,97340.91
2023-03-26T22:09:59.473Z,97330.65
2023-03-26T22:12:26.255Z,97322.76
2023-03-26T22:14:53.029Z,97319.29
2023-03-26T22:17:20.127Z,97307.73
2023-03-26T22:19:46.950Z,97304.59
2023-03-26T22:22:14.393Z,97304.59
2023-03-26T22:24:41.740Z,97299.06
2023-03-26T22:27:08.572Z,97295.04
2023-03-26T22:29:35.908Z,97292.67
2023-03-26T22:32:03.264Z,97286.31
2023-03-26T22:34:31.170Z,97286.85
2023-03-26T22:36:58.031Z,97284.37
2023-03-26T22:39:25.410Z,97284.21
2023-03-26T22:41:52.366Z,97285.13
2023-03-26T22:44:20.567Z,97288.13
2023-03-26T22:46:50.575Z,97284.83
2023-03-26T22:49:17.626Z,97284.17
2023-03-26T22:51:44.683Z,97273.93
2023-03-26T22:54:11.733Z,97272.11
2023-03-26T22:56:38.727Z,97270.86
2023-03-26T22:59:05.614Z,97266.85
2023-03-26T23:01:32.574Z,97262.40
2023-03-26T23:03:59.520Z,97261.52
2023-03-26T23:06:26.512Z,97261.89
2023-03-26T23:08:55.407Z,97260.50
2023-03-26T23:11:22.703Z,97261.02
2023-03-26T23:13:49.837Z,97252.17
2023-03-26T23:16:17.045Z,97246.41
2023-03-26T23:18:44.707Z,97249.41
2023-03-26T23:21:16.067Z,97243.16
2023-03-26T23:23:43.253Z,97243.84
2023-03-26T23:26:10.389Z,97245.98
2023-03-26T23:28:37.844Z,97245.66
2023-03-26T23:31:06.084Z,97244.64
2023-03-26T23:33:34.843Z,97241.00
2023-03-26T23:36:03.672Z,97242.54
2023-03-26T23:38:44.228Z,97239.52
2023-03-26T23:41:15.543Z,97234.91
2023-03-26T23:43:53.981Z,97237.13
2023-03-26T23:46:23.968Z,97237.27
2023-03-26T23:48:51.375Z,97238.21
2023-03-26T23:51:21.823Z,97233.93
2023-03-26T23:53:48.785Z,97228.89
2023-03-26T23:56:15.762Z,97226.66
2023-03-26T23:58:42.821Z,97230.32
